createdAt,value
2018-12-24T00:01:34.107Z,91.08
2018-12-24T00:04:05.951Z,91.31
2018-12-24T00:06:37.467Z,91.39
2018-12-24T00:09:09.214Z,91.33
2018-12-24T00:11:40.710Z,91.53
2018-12-24T00:14:12.736Z,91.29
2018-12-24T00:16:44.179Z,90.89
2018-12-24T00:19:16.245Z,90.86
2018-12-24T00:21:50.950Z,90.83
2018-12-24T00:24:22.517Z,91.41
2018-12-24T00:26:53.914Z,91.24
2018-12-24T00:29:25.329Z,91.14
2018-12-24T00:31:56.797Z,91.14
2018-12-24T00:34:28.570Z,91.33
2018-12-24T00:36:59.996Z,91.23
2018-12-24T00:39:31.485Z,91.07
2018-12-24T00:42:02.894Z,91.19
2018-12-24T00:44:34.384Z,90.81
2018-12-24T00:47:05.861Z,90.63
2018-12-24T00:49:37.298Z,90.97
2018-12-24T00:52:08.732Z,91.39
2018-12-24T00:54:40.202Z,91.59
2018-12-24T00:57:11.620Z,91.75
2018-12-24T00:59:43.056Z,91.62
2018-12-24T01:02:14.984Z,91.60
2018-12-24T01:04:46.382Z,91.95
2018-12-24T01:07:17.813Z,91.91
2018-12-24T01:09:49.311Z,92.07
2018-12-24T01:12:24.619Z,92.00
2018-12-24T01:14:53.973Z,92.25
2018-12-24T01:17:25.438Z,92.35
2018-12-24T01:19:57.283Z,92.46
2018-12-24T01:22:28.781Z,92.78
2018-12-24T01:25:00.241Z,92.95
2018-12-24T01:27:31.653Z,92.99
2018-12-24T01:30:03.104Z,92.91
2018-12-24T01:32:34.565Z,92.55
2018-12-24T01:35:06.009Z,92.38
2018-12-24T01:37:38.010Z,92.20
2018-12-24T01:40:09.571Z,92.44
2018-12-24T01:42:40.985Z,92.39
2018-12-24T01:45:12.432Z,91.67
2018-12-24T01:47:43.851Z,91.66
2018-12-24T01:50:15.265Z,92.07
2018-12-24T01:52:46.768Z,92.22
2018-12-24T01:55:18.187Z,92.39
2018-12-24T01:57:49.642Z,92.40
2018-12-24T02:00:21.452Z,92.32
2018-12-24T02:02:52.864Z,92.61
2018-12-24T02:05:24.303Z,92.83
2018-12-24T02:07:55.724Z,93.04
2018-12-24T02:10:27.184Z,92.99
2018-12-24T02:12:58.865Z,92.95
2018-12-24T02:15:30.377Z,93.11
2018-12-24T02:18:01.906Z,92.84
2018-12-24T02:20:33.604Z,92.37
2018-12-24T02:23:05.060Z,91.67
2018-12-24T02:25:36.478Z,91.27
2018-12-24T02:28:08.180Z,91.36
2018-12-24T02:30:39.627Z,91.56
2018-12-24T02:33:11.322Z,91.40
2018-12-24T02:35:42.804Z,91.42
2018-12-24T02:38:14.231Z,91.46
2018-12-24T02:40:45.623Z,91.63
2018-12-24T02:43:17.183Z,91.82
2018-12-24T02:45:48.893Z,92.09
2018-12-24T02:48:20.339Z,92.26
2018-12-24T02:50:51.748Z,92.26
2018-12-24T02:53:24.594Z,92.26
2018-12-24T02:55:56.164Z,92.29
2018-12-24T02:58:27.569Z,92.33
2018-12-24T03:00:59.067Z,92.24
2018-12-24T03:03:30.530Z,91.94
2018-12-24T03:06:01.947Z,91.82
2018-12-24T03:08:33.402Z,91.14
2018-12-24T03:11:04.835Z,90.73
2018-12-24T03:13:36.407Z,90.77
2018-12-24T03:16:07.850Z,91.03
2018-12-24T03:18:39.311Z,90.68
2018-12-24T03:21:10.816Z,90.62
2018-12-24T03:23:42.249Z,90.41
2018-12-24T03:26:13.656Z,90.17
2018-12-24T03:28:45.394Z,90.16
2018-12-24T03:31:16.864Z,89.75
2018-12-24T03:33:48.341Z,87.55
2018-12-24T03:36:19.787Z,86.05
2018-12-24T03:38:51.209Z,85.54
2018-12-24T03:41:22.655Z,86.15
2018-12-24T03:43:54.405Z,86.03
2018-12-24T03:46:25.896Z,86.27
2018-12-24T03:48:57.348Z,86.69
2018-12-24T03:51:29.037Z,87.22
2018-12-24T03:54:00.502Z,87.37
2018-12-24T03:56:31.919Z,87.34
2018-12-24T03:59:03.612Z,87.23
2018-12-24T04:01:35.068Z,87.16
2018-12-24T04:04:06.543Z,86.75
2018-12-24T04:06:38.043Z,86.93
2018-12-24T04:09:09.715Z,87.64
2018-12-24T04:11:41.148Z,87.46
2018-12-24T04:14:12.867Z,87.67
2018-12-24T04:16:44.304Z,87.33
2018-12-24T04:19:15.751Z,86.56
2018-12-24T04:21:47.572Z,86.35
2018-12-24T04:24:18.979Z,85.84
2018-12-24T04:26:50.707Z,85.74
2018-12-24T04:29:22.715Z,85.63
2018-12-24T04:31:54.125Z,85.72
2018-12-24T04:34:25.569Z,86.08
2018-12-24T04:36:56.985Z,86.36
2018-12-24T04:39:28.396Z,86.45
2018-12-24T04:41:59.940Z,85.55
2018-12-24T04:44:31.333Z,85.92
2018-12-24T04:47:02.789Z,85.79
2018-12-24T04:49:34.529Z,86.18
2018-12-24T04:52:06.039Z,85.94
2018-12-24T04:54:37.557Z,85.76
2018-12-24T04:57:08.995Z,85.83
2018-12-24T04:59:40.763Z,85.80
2018-12-24T05:02:12.217Z,85.81
2018-12-24T05:04:43.904Z,86.03
2018-12-24T05:07:15.371Z,85.66
2018-12-24T05:09:46.766Z,85.50
2018-12-24T05:12:18.278Z,85.24
2018-12-24T05:14:49.676Z,85.30
2018-12-24T05:17:21.082Z,85.51
2018-12-24T05:19:52.518Z,86.04
2018-12-24T05:22:23.968Z,86.45
2018-12-24T05:24:55.481Z,86.70
2018-12-24T05:27:26.899Z,86.56
2018-12-24T05:29:58.299Z,85.85
2018-12-24T05:32:29.747Z,86.11
2018-12-24T05:35:01.147Z,85.52
2018-12-24T05:37:32.906Z,85.15
2018-12-24T05:40:04.327Z,84.37
2018-12-24T05:42:35.725Z,83.53
2018-12-24T05:45:07.252Z,83.75
2018-12-24T05:47:38.680Z,83.95
2018-12-24T05:50:10.178Z,83.71
2018-12-24T05:52:41.591Z,83.65
2018-12-24T05:55:13.020Z,83.35
2018-12-24T05:57:44.444Z,83.19
2018-12-24T06:00:15.877Z,83.61
2018-12-24T06:02:47.698Z,83.12
2018-12-24T06:05:19.099Z,83.37
2018-12-24T06:07:50.547Z,83.42
2018-12-24T06:10:22.273Z,83.68
2018-12-24T06:12:53.668Z,83.16
2018-12-24T06:15:25.078Z,83.29
2018-12-24T06:17:57.724Z,83.39
2018-12-24T06:20:37.516Z,83.62
2018-12-24T06:23:02.507Z,83.82
2018-12-24T06:25:33.936Z,84.62
2018-12-24T06:28:05.336Z,85.18
2018-12-24T06:30:37.350Z,85.59
2018-12-24T06:33:08.840Z,85.81
2018-12-24T06:35:40.349Z,86.35
2018-12-24T06:38:12.045Z,85.61
2018-12-24T06:40:43.455Z,86.32
2018-12-24T06:43:15.168Z,85.33
2018-12-24T06:45:46.564Z,85.06
2018-12-24T06:48:18.031Z,85.25
2018-12-24T06:50:49.496Z,84.55
2018-12-24T06:53:20.985Z,84.06
2018-12-24T06:55:52.426Z,83.95
2018-12-24T06:58:24.108Z,83.83
2018-12-24T07:00:56.194Z,84.24
2018-12-24T07:03:27.915Z,84.51
2018-12-24T07:05:59.328Z,84.59
2018-12-24T07:08:30.845Z,84.38
2018-12-24T07:11:02.846Z,84.86
2018-12-24T07:13:34.314Z,84.88
2018-12-24T07:16:05.717Z,85.64
2018-12-24T07:18:37.835Z,85.79
2018-12-24T07:21:09.564Z,86.03
2018-12-24T07:23:40.980Z,86.95
2018-12-24T07:26:12.434Z,87.05
2018-12-24T07:28:43.860Z,86.35
2018-12-24T07:31:15.291Z,85.67
2018-12-24T07:33:47.011Z,85.25
2018-12-24T07:36:18.533Z,84.26
2018-12-24T07:38:50.296Z,83.62
2018-12-24T07:41:21.708Z,84.00
2018-12-24T07:43:53.200Z,84.41
2018-12-24T07:46:24.907Z,84.71
2018-12-24T07:48:56.360Z,84.46
2018-12-24T07:51:27.803Z,85.08
2018-12-24T07:53:59.305Z,84.88
2018-12-24T07:56:30.770Z,85.20
2018-12-24T07:59:02.166Z,85.41
2018-12-24T08:01:33.611Z,85.60
2018-12-24T08:04:05.037Z,85.09
2018-12-24T08:06:36.720Z,85.86
2018-12-24T08:09:10.462Z,86.07
2018-12-24T08:12:08.351Z,86.10
2018-12-24T08:14:39.851Z,86.05
2018-12-24T08:17:11.285Z,85.78
2018-12-24T08:19:42.967Z,85.56
2018-12-24T08:22:14.415Z,85.76
2018-12-24T08:24:45.820Z,85.47
2018-12-24T08:27:17.329Z,85.80
2018-12-24T08:29:48.719Z,86.22
2018-12-24T08:32:20.126Z,87.04
2018-12-24T08:34:52.128Z,87.27
2018-12-24T08:37:23.812Z,87.73
2018-12-24T08:39:55.641Z,87.67
2018-12-24T08:42:27.083Z,87.31
2018-12-24T08:44:58.564Z,85.82
2018-12-24T08:47:30.013Z,84.51
2018-12-24T08:50:01.448Z,84.17
2018-12-24T08:52:33.091Z,84.95
2018-12-24T08:55:04.497Z,85.50
2018-12-24T08:57:36.195Z,86.16
2018-12-24T09:00:07.876Z,86.35
2018-12-24T09:02:39.313Z,86.23
2018-12-24T09:05:10.766Z,85.44
2018-12-24T09:07:42.174Z,85.86
2018-12-24T09:10:13.596Z,86.11
2018-12-24T09:12:45.131Z,86.05
2018-12-24T09:15:16.937Z,86.26
2018-12-24T09:17:48.486Z,86.34
2018-12-24T09:20:19.889Z,86.29
2018-12-24T09:22:51.362Z,85.71
2018-12-24T09:25:22.767Z,85.82
2018-12-24T09:27:54.796Z,86.60
2018-12-24T09:30:27.123Z,86.30
2018-12-24T09:32:58.520Z,86.44
2018-12-24T09:35:29.980Z,86.21
2018-12-24T09:38:01.751Z,85.93
2018-12-24T09:40:33.213Z,85.78
2018-12-24T09:43:04.632Z,85.64
2018-12-24T09:45:36.362Z,84.33
2018-12-24T09:48:07.867Z,82.52
2018-12-24T09:50:39.272Z,81.15
2018-12-24T09:53:10.812Z,81.05
2018-12-24T09:55:42.223Z,81.00
2018-12-24T09:58:13.650Z,81.95
2018-12-24T10:00:45.101Z,81.99
2018-12-24T10:03:28.922Z,82.60
2018-12-24T10:06:13.595Z,83.44
2018-12-24T10:08:45.721Z,83.35
2018-12-24T10:11:17.496Z,83.17
2018-12-24T10:13:49.011Z,83.32
2018-12-24T10:16:20.522Z,82.70
2018-12-24T10:18:51.999Z,82.86
2018-12-24T10:21:23.729Z,81.52
2018-12-24T10:23:56.110Z,81.06
2018-12-24T10:26:27.663Z,81.59
2018-12-24T10:28:59.106Z,81.85
2018-12-24T10:31:30.536Z,80.36
2018-12-24T10:34:02.540Z,79.39
2018-12-24T10:36:33.958Z,80.58
2018-12-24T10:39:06.844Z,79.81
2018-12-24T10:41:38.557Z,78.25
2018-12-24T10:44:10.033Z,78.82
2018-12-24T10:46:41.499Z,79.82
2018-12-24T10:49:13.782Z,79.52
2018-12-24T10:51:45.196Z,79.81
2018-12-24T10:54:16.676Z,79.14
2018-12-24T10:56:48.449Z,79.77
2018-12-24T10:59:19.942Z,79.28
2018-12-24T11:01:51.383Z,79.78
2018-12-24T11:04:23.106Z,78.22
2018-12-24T11:06:55.887Z,78.71
2018-12-24T11:09:27.605Z,79.80
2018-12-24T11:11:59.063Z,78.43
2018-12-24T11:14:30.483Z,78.57
2018-12-24T11:17:02.178Z,79.30
2018-12-24T11:19:33.927Z,78.15
2018-12-24T11:22:05.476Z,77.51
2018-12-24T11:24:36.940Z,77.40
2018-12-24T11:27:08.385Z,77.72
2018-12-24T11:29:40.089Z,79.42
2018-12-24T11:32:11.561Z,77.93
2018-12-24T11:34:42.985Z,78.28
2018-12-24T11:37:14.459Z,76.46
2018-12-24T11:39:45.876Z,75.84
2018-12-24T11:42:17.300Z,75.69
2018-12-24T11:44:48.750Z,76.01
2018-12-24T11:47:20.140Z,77.08
2018-12-24T11:49:51.607Z,74.93
2018-12-24T11:52:22.991Z,75.72
2018-12-24T11:54:54.473Z,76.31
2018-12-24T11:57:25.877Z,76.29
2018-12-24T11:59:57.294Z,75.80
2018-12-24T12:02:29.350Z,75.77
2018-12-24T12:05:00.761Z,74.93
2018-12-24T12:07:32.498Z,74.76
2018-12-24T12:10:04.413Z,74.62
2018-12-24T12:12:35.855Z,74.87
2018-12-24T12:15:07.529Z,73.74
2018-12-24T12:17:39.238Z,74.54
2018-12-24T12:20:10.868Z,75.39
2018-12-24T12:22:42.636Z,74.67
2018-12-24T12:26:30.276Z,74.71
2018-12-24T15:11:40.475Z,78.70
2018-12-24T15:18:37.024Z,80.31
2018-12-24T15:25:13.666Z,80.46
2018-12-24T15:28:38.675Z,80.32
2018-12-24T15:58:08.523Z,78.54
2018-12-24T16:27:33.251Z,77.42
2018-12-24T16:30:04.893Z,77.66
2018-12-24T16:32:35.854Z,77.49
2018-12-24T16:35:06.775Z,77.92
2018-12-24T16:37:37.640Z,77.75
2018-12-24T16:40:08.537Z,77.37
2018-12-24T16:42:39.727Z,77.15
2018-12-24T16:45:10.942Z,77.44
2018-12-24T16:47:41.817Z,77.86
2018-12-24T16:50:12.691Z,77.43
2018-12-24T16:52:43.935Z,76.76
2018-12-24T16:55:15.119Z,77.08
2018-12-24T16:57:46.400Z,77.14
2018-12-24T17:00:17.332Z,76.85
2018-12-24T17:02:48.244Z,77.63
2018-12-24T17:05:19.158Z,78.74
2018-12-24T17:07:50.013Z,79.45
2018-12-24T17:10:20.939Z,79.57
2018-12-24T17:12:52.254Z,79.96
2018-12-24T17:15:23.186Z,80.62
2018-12-24T17:17:54.108Z,80.89
2018-12-24T17:20:24.986Z,82.03
2018-12-24T17:22:55.883Z,82.17
2018-12-24T17:25:26.752Z,81.94
2018-12-24T17:27:57.735Z,82.41
2018-12-24T17:30:28.636Z,82.37
2018-12-24T17:33:01.616Z,82.66
2018-12-24T17:35:32.135Z,83.04
2018-12-24T17:38:03.056Z,83.60
2018-12-24T17:40:33.930Z,83.69
2018-12-24T17:43:05.116Z,83.56
2018-12-24T17:45:36.068Z,83.73
2018-12-24T17:48:07.247Z,83.93
2018-12-24T17:50:38.530Z,84.37
2018-12-24T17:53:09.689Z,84.13
2018-12-24T17:55:40.878Z,83.85
2018-12-24T17:58:12.086Z,83.69
2018-12-24T18:00:43.247Z,83.62
2018-12-24T18:03:14.198Z,84.46
2018-12-24T18:05:45.110Z,84.77
2018-12-24T18:08:15.991Z,84.87
2018-12-24T18:10:47.196Z,84.70
2018-12-24T18:13:18.068Z,84.89
2018-12-24T18:15:49.577Z,84.91
2018-12-24T18:18:20.445Z,85.04
2018-12-24T18:20:51.318Z,84.96
2018-12-24T18:23:22.246Z,85.15
2018-12-24T18:25:53.206Z,85.17
2018-12-24T18:28:24.396Z,84.90
2018-12-24T18:30:57.439Z,84.50
2018-12-24T18:33:28.213Z,84.73
2018-12-24T18:35:59.137Z,85.39
2018-12-24T18:38:30.208Z,85.23
2018-12-24T18:41:01.420Z,85.25
2018-12-24T18:43:32.332Z,85.68
2018-12-24T18:46:03.477Z,85.66
2018-12-24T18:48:34.363Z,86.02
2018-12-24T18:51:05.270Z,85.92
2018-12-24T18:53:36.174Z,86.16
2018-12-24T18:56:07.092Z,86.28
2018-12-24T18:58:37.973Z,86.08
2018-12-24T19:01:09.168Z,86.54
2018-12-24T19:03:40.054Z,86.85
2018-12-24T19:06:11.301Z,87.10
2018-12-24T19:08:42.173Z,87.15
2018-12-24T19:11:13.074Z,87.30
2018-12-24T19:13:43.972Z,87.29
2018-12-24T19:16:14.858Z,87.10
2018-12-24T19:18:46.413Z,87.21
2018-12-24T19:21:17.614Z,87.19
2018-12-24T19:24:07.248Z,87.54
2018-12-24T19:26:38.710Z,87.58
2018-12-24T19:29:09.633Z,87.98
2018-12-24T19:31:40.505Z,88.53
2018-12-24T19:34:11.439Z,88.77
2018-12-24T19:36:42.340Z,89.20
2018-12-24T19:39:13.413Z,89.21
2018-12-24T19:41:44.431Z,89.74
2018-12-24T19:44:15.682Z,89.93
2018-12-24T19:46:46.628Z,90.18
2018-12-24T19:49:17.543Z,90.06
2018-12-24T19:51:48.455Z,90.10
2018-12-24T19:54:19.656Z,90.10
2018-12-24T19:56:50.824Z,90.07
2018-12-24T19:59:21.682Z,90.03
2018-12-24T20:01:54.396Z,90.06
2018-12-24T20:04:25.778Z,90.12
2018-12-24T20:06:57.003Z,90.16
2018-12-24T20:09:27.880Z,89.93
2018-12-24T20:12:01.046Z,89.66
2018-12-24T20:14:32.225Z,89.83
2018-12-24T20:17:03.163Z,89.90
2018-12-24T20:19:34.386Z,89.74
2018-12-24T20:22:05.288Z,89.69
2018-12-24T20:24:36.203Z,89.65
2018-12-24T20:27:07.086Z,89.69
2018-12-24T20:29:37.947Z,89.33
2018-12-24T20:32:09.324Z,89.35
2018-12-24T20:34:40.192Z,89.85
2018-12-24T20:37:11.078Z,89.96
2018-12-24T20:39:42.129Z,89.87
2018-12-24T20:42:15.060Z,89.79
2018-12-24T20:44:46.291Z,89.94
2018-12-24T20:47:17.184Z,90.10
2018-12-24T20:49:48.070Z,90.16
2018-12-24T20:52:19.001Z,90.02
2018-12-24T20:54:49.953Z,89.66
2018-12-24T20:57:20.834Z,89.66
2018-12-24T20:59:51.759Z,89.44
2018-12-24T21:02:22.625Z,88.92
2018-12-24T21:04:53.565Z,88.47
2018-12-24T21:07:24.432Z,88.20
2018-12-24T21:09:55.318Z,87.99
2018-12-24T21:12:26.523Z,88.10
2018-12-24T21:14:57.393Z,88.26
2018-12-24T21:17:28.319Z,88.12
2018-12-24T21:19:59.204Z,88.00
2018-12-24T21:22:30.079Z,87.54
2018-12-24T21:25:00.967Z,87.60
2018-12-24T21:27:31.874Z,87.28
2018-12-24T21:30:02.789Z,87.43
2018-12-24T21:32:33.667Z,87.18
2018-12-24T21:35:04.853Z,86.94
2018-12-24T21:37:36.052Z,86.49
2018-12-24T21:40:06.918Z,86.42
2018-12-24T21:42:37.841Z,86.10
2018-12-24T21:45:08.717Z,86.28
2018-12-24T21:47:39.880Z,86.65
2018-12-24T21:50:11.069Z,86.13
2018-12-24T21:52:42.627Z,86.30
2018-12-24T21:55:13.543Z,86.17
2018-12-24T21:57:44.484Z,86.30
2018-12-24T22:00:15.417Z,86.36
2018-12-24T22:02:46.571Z,86.93
2018-12-24T22:05:17.779Z,86.61
2018-12-24T22:07:48.671Z,86.99
2018-12-24T22:10:19.546Z,87.11
2018-12-24T22:12:50.473Z,87.12
2018-12-24T22:15:21.441Z,86.96
2018-12-24T22:17:52.354Z,86.59
2018-12-24T22:20:23.245Z,86.71
2018-12-24T22:22:54.145Z,86.61
2018-12-24T22:25:25.162Z,86.58
2018-12-24T22:27:56.095Z,86.90
2018-12-24T22:30:26.966Z,87.04
2018-12-24T22:32:57.868Z,87.28
2018-12-24T22:35:28.740Z,87.18
2018-12-24T22:37:59.652Z,87.50
2018-12-24T22:40:30.540Z,87.14
2018-12-24T22:43:01.420Z,86.78
2018-12-24T22:45:32.403Z,86.63
2018-12-24T22:48:03.288Z,85.97
2018-12-24T22:50:34.539Z,86.02
2018-12-24T22:53:05.408Z,86.04
2018-12-24T22:55:36.287Z,85.80
2018-12-24T22:58:08.570Z,85.60
2018-12-24T23:00:49.210Z,85.49
2018-12-24T23:03:20.231Z,85.04
2018-12-24T23:05:51.152Z,85.21
2018-12-24T23:08:22.021Z,85.34
2018-12-24T23:10:52.917Z,85.38
2018-12-24T23:13:23.819Z,85.84
2018-12-24T23:15:55.025Z,86.25
2018-12-24T23:18:26.194Z,85.72
2018-12-24T23:20:57.070Z,85.52
2018-12-24T23:23:27.990Z,85.40
2018-12-24T23:25:58.883Z,85.22
2018-12-24T23:28:29.879Z,84.85
2018-12-24T23:31:00.757Z,84.40
2018-12-24T23:33:31.684Z,84.38
2018-12-24T23:36:02.566Z,84.20
2018-12-24T23:38:33.470Z,83.78
2018-12-24T23:41:04.683Z,83.97
2018-12-24T23:43:35.596Z,83.89
2018-12-24T23:46:06.543Z,83.87
2018-12-24T23:48:37.407Z,83.91
2018-12-24T23:51:08.564Z,83.94
2018-12-24T23:53:39.463Z,83.59
2018-12-24T23:56:10.938Z,83.66
2018-12-24T23:58:41.893Z,83.61
